Terminal Aerodrome Forecast
Issued by NWS

Home | Current Version | Previous Version | Text Only | Print | Product List | Glossary On
Versions: 1 2 3 4 5 6 7 8 9 10 11 12 13 14 15 16 17
000
FTUS42 KTBW 201100
TAFPGD
TAF
KPGD 201131Z 2012/2112 09005KT P6SM SCT250
      TEMPO 2012/2013 4SM BR
     FM201400 14007KT P6SM FEW150 SCT250
     FM201800 23006KT P6SM FEW150 SCT250
     FM210000 VRB03KT P6SM SCT110 BKN250
     FM210900 VRB02KT 4SM BR SCT110 BKN250=

USA.gov is the U.S. government's official web portal to all federal, state and local government web resources and services.